sensor_id;sensor_type;location;lat;lon;timestamp;temperature;humidity
41953;DHT22;63613;28.200;112.870;2023-04-16T00:01:52;24.00;54.40
41953;DHT22;63613;28.200;112.870;2023-04-16T00:04:18;24.00;54.60
41953;DHT22;63613;28.200;112.870;2023-04-16T00:06:45;24.00;54.50
41953;DHT22;63613;28.200;112.870;2023-04-16T00:09:12;24.10;54.20
41953;DHT22;63613;28.200;112.870;2023-04-16T00:11:39;24.00;54.30
41953;DHT22;63613;28.200;112.870;2023-04-16T00:14:06;24.10;54.30
41953;DHT22;63613;28.200;112.870;2023-04-16T00:16:32;24.10;54.30
41953;DHT22;63613;28.200;112.870;2023-04-16T00:18:59;24.10;54.40
41953;DHT22;63613;28.200;112.870;2023-04-16T00:21:46;24.10;54.30
41953;DHT22;63613;28.200;112.870;2023-04-16T00:24:13;24.10;54.40
41953;DHT22;63613;28.200;112.870;2023-04-16T00:26:41;24.10;54.50
41953;DHT22;63613;28.200;112.870;2023-04-16T00:29:10;24.10;54.50
41953;DHT22;63613;28.200;112.870;2023-04-16T00:31:57;24.10;54.70
41953;DHT22;63613;28.200;112.870;2023-04-16T00:34:24;24.20;54.90
41953;DHT22;63613;28.200;112.870;2023-04-16T00:36:51;24.20;54.90
41953;DHT22;63613;28.200;112.870;2023-04-16T00:39:18;24.20;54.80
41953;DHT22;63613;28.200;112.870;2023-04-16T00:41:45;24.20;54.90
41953;DHT22;63613;28.200;112.870;2023-04-16T00:44:12;24.20;54.90
41953;DHT22;63613;28.200;112.870;2023-04-16T00:46:39;24.20;54.90
41953;DHT22;63613;28.200;112.870;2023-04-16T00:49:07;24.30;54.80
41953;DHT22;63613;28.200;112.870;2023-04-16T00:51:34;24.20;54.90
41953;DHT22;63613;28.200;112.870;2023-04-16T00:54:02;24.20;54.90
41953;DHT22;63613;28.200;112.870;2023-04-16T00:56:30;24.30;54.80
41953;DHT22;63613;28.200;112.870;2023-04-16T00:58:58;24.30;55.00
41953;DHT22;63613;28.200;112.870;2023-04-16T01:01:25;24.30;55.10
41953;DHT22;63613;28.200;112.870;2023-04-16T01:03:52;24.30;55.40
41953;DHT22;63613;28.200;112.870;2023-04-16T01:06:20;24.30;55.30
41953;DHT22;63613;28.200;112.870;2023-04-16T01:08:51;24.30;55.50
41953;DHT22;63613;28.200;112.870;2023-04-16T01:11:18;24.30;55.40
41953;DHT22;63613;28.200;112.870;2023-04-16T01:13:49;24.30;55.40
41953;DHT22;63613;28.200;112.870;2023-04-16T01:16:15;24.30;55.50
41953;DHT22;63613;28.200;112.870;2023-04-16T01:18:42;24.40;55.60
41953;DHT22;63613;28.200;112.870;2023-04-16T01:21:09;24.40;55.60
41953;DHT22;63613;28.200;112.870;2023-04-16T01:23:56;24.40;55.70
41953;DHT22;63613;28.200;112.870;2023-04-16T01:26:23;24.40;55.70
41953;DHT22;63613;28.200;112.870;2023-04-16T01:28:50;24.40;55.60
41953;DHT22;63613;28.200;112.870;2023-04-16T01:31:17;24.40;55.50
41953;DHT22;63613;28.200;112.870;2023-04-16T01:33:44;24.40;55.50
41953;DHT22;63613;28.200;112.870;2023-04-16T01:36:31;24.40;55.60
41953;DHT22;63613;28.200;112.870;2023-04-16T01:38:58;24.40;55.70
41953;DHT22;63613;28.200;112.870;2023-04-16T01:41:29;24.40;55.60
41953;DHT22;63613;28.200;112.870;2023-04-16T01:44:16;24.50;55.60
41953;DHT22;63613;28.200;112.870;2023-04-16T01:46:43;24.50;55.50
41953;DHT22;63613;28.200;112.870;2023-04-16T01:49:10;24.50;55.50
41953;DHT22;63613;28.200;112.870;2023-04-16T01:51:37;24.50;55.40
41953;DHT22;63613;28.200;112.870;2023-04-16T01:54:04;24.50;55.50
41953;DHT22;63613;28.200;112.870;2023-04-16T01:56:51;24.50;55.40
41953;DHT22;63613;28.200;112.870;2023-04-16T01:59:17;24.50;55.40
41953;DHT22;63613;28.200;112.870;2023-04-16T02:01:45;24.50;55.50
41953;DHT22;63613;28.200;112.870;2023-04-16T02:04:12;24.60;55.70
41953;DHT22;63613;28.200;112.870;2023-04-16T02:06:39;24.60;55.80
41953;DHT22;63613;28.200;112.870;2023-04-16T02:09:06;24.60;55.80
41953;DHT22;63613;28.200;112.870;2023-04-16T02:11:33;24.60;55.90
41953;DHT22;63613;28.200;112.870;2023-04-16T02:14:00;24.60;56.00
41953;DHT22;63613;28.200;112.870;2023-04-16T02:16:27;24.60;56.10
41953;DHT22;63613;28.200;112.870;2023-04-16T02:18:54;24.60;55.90
41953;DHT22;63613;28.200;112.870;2023-04-16T02:21:42;24.60;55.90
41953;DHT22;63613;28.200;112.870;2023-04-16T02:24:10;24.70;56.10
41953;DHT22;63613;28.200;112.870;2023-04-16T02:26:37;24.70;56.00
41953;DHT22;63613;28.200;112.870;2023-04-16T02:29:04;24.80;55.90
41953;DHT22;63613;28.200;112.870;2023-04-16T02:31:31;24.80;55.70
41953;DHT22;63613;28.200;112.870;2023-04-16T02:33:58;24.80;55.60
41953;DHT22;63613;28.200;112.870;2023-04-16T02:36:25;24.80;55.40
41953;DHT22;63613;28.200;112.870;2023-04-16T02:38:53;24.80;55.40
41953;DHT22;63613;28.200;112.870;2023-04-16T02:41:22;24.90;55.30
41953;DHT22;63613;28.200;112.870;2023-04-16T02:43:50;24.90;55.30
41953;DHT22;63613;28.200;112.870;2023-04-16T02:46:17;24.90;55.40
41953;DHT22;63613;28.200;112.870;2023-04-16T02:48:44;25.00;55.30
41953;DHT22;63613;28.200;112.870;2023-04-16T02:51:11;25.00;55.30
41953;DHT22;63613;28.200;112.870;2023-04-16T02:53:40;25.00;55.40
41953;DHT22;63613;28.200;112.870;2023-04-16T02:56:30;25.10;55.40
41953;DHT22;63613;28.200;112.870;2023-04-16T02:59:17;25.10;55.30
41953;DHT22;63613;28.200;112.870;2023-04-16T03:01:44;25.20;55.10
41953;DHT22;63613;28.200;112.870;2023-04-16T03:04:11;25.20;55.10
41953;DHT22;63613;28.200;112.870;2023-04-16T03:06:38;25.20;55.10
41953;DHT22;63613;28.200;112.870;2023-04-16T03:09:05;25.30;55.20
41953;DHT22;63613;28.200;112.870;2023-04-16T03:11:31;25.30;55.00
41953;DHT22;63613;28.200;112.870;2023-04-16T03:13:58;25.30;55.00
41953;DHT22;63613;28.200;112.870;2023-04-16T03:16:25;25.30;54.80
41953;DHT22;63613;28.200;112.870;2023-04-16T03:18:53;25.30;55.00
41953;DHT22;63613;28.200;112.870;2023-04-16T03:21:20;25.40;55.10
41953;DHT22;63613;28.200;112.870;2023-04-16T03:23:47;25.40;55.10
41953;DHT22;63613;28.200;112.870;2023-04-16T03:26:14;25.50;55.00
41953;DHT22;63613;28.200;112.870;2023-04-16T03:28:41;25.50;54.80
41953;DHT22;63613;28.200;112.870;2023-04-16T03:31:08;25.50;54.80
41953;DHT22;63613;28.200;112.870;2023-04-16T03:33:35;25.50;54.90
41953;DHT22;63613;28.200;112.870;2023-04-16T03:36:02;25.60;54.80
41953;DHT22;63613;28.200;112.870;2023-04-16T03:38:29;25.70;54.80
41953;DHT22;63613;28.200;112.870;2023-04-16T03:40:58;25.60;54.70
41953;DHT22;63613;28.200;112.870;2023-04-16T03:43:25;25.70;54.70
41953;DHT22;63613;28.200;112.870;2023-04-16T03:45:52;25.70;54.60
41953;DHT22;63613;28.200;112.870;2023-04-16T03:48:18;25.70;54.60
41953;DHT22;63613;28.200;112.870;2023-04-16T03:50:46;25.70;54.40
41953;DHT22;63613;28.200;112.870;2023-04-16T03:53:13;25.80;54.10
41953;DHT22;63613;28.200;112.870;2023-04-16T03:55:41;25.80;54.10
41953;DHT22;63613;28.200;112.870;2023-04-16T03:58:09;25.80;54.00
41953;DHT22;63613;28.200;112.870;2023-04-16T04:00:39;25.90;53.60
41953;DHT22;63613;28.200;112.870;2023-04-16T04:03:26;25.90;53.50
41953;DHT22;63613;28.200;112.870;2023-04-16T04:05:53;26.00;53.20
41953;DHT22;63613;28.200;112.870;2023-04-16T04:08:20;26.00;53.00
41953;DHT22;63613;28.200;112.870;2023-04-16T04:10:47;26.10;52.90
41953;DHT22;63613;28.200;112.870;2023-04-16T04:13:16;26.10;52.70
41953;DHT22;63613;28.200;112.870;2023-04-16T04:15:46;26.10;52.60
41953;DHT22;63613;28.200;112.870;2023-04-16T04:18:13;26.20;52.60
41953;DHT22;63613;28.200;112.870;2023-04-16T04:21:07;26.20;52.80
41953;DHT22;63613;28.200;112.870;2023-04-16T04:23:35;26.20;52.70
41953;DHT22;63613;28.200;112.870;2023-04-16T04:26:02;26.20;52.50
41953;DHT22;63613;28.200;112.870;2023-04-16T04:28:31;26.30;52.50
41953;DHT22;63613;28.200;112.870;2023-04-16T04:30:59;26.30;52.50
41953;DHT22;63613;28.200;112.870;2023-04-16T04:33:28;26.40;52.40
41953;DHT22;63613;28.200;112.870;2023-04-16T04:35:55;26.40;52.60
41953;DHT22;63613;28.200;112.870;2023-04-16T04:38:22;26.40;52.60
41953;DHT22;63613;28.200;112.870;2023-04-16T04:40:51;26.50;52.70
41953;DHT22;63613;28.200;112.870;2023-04-16T04:43:19;26.50;52.10
41953;DHT22;63613;28.200;112.870;2023-04-16T04:45:46;26.60;52.00
41953;DHT22;63613;28.200;112.870;2023-04-16T04:48:14;26.60;51.90
41953;DHT22;63613;28.200;112.870;2023-04-16T04:50:44;26.60;51.80
41953;DHT22;63613;28.200;112.870;2023-04-16T04:53:11;26.70;52.00
41953;DHT22;63613;28.200;112.870;2023-04-16T04:55:39;26.70;52.10
41953;DHT22;63613;28.200;112.870;2023-04-16T04:58:07;26.70;52.20
41953;DHT22;63613;28.200;112.870;2023-04-16T05:00:38;26.70;52.30
41953;DHT22;63613;28.200;112.870;2023-04-16T05:03:09;26.80;52.20
41953;DHT22;63613;28.200;112.870;2023-04-16T05:05:38;26.90;52.10
41953;DHT22;63613;28.200;112.870;2023-04-16T05:08:06;26.90;52.40
41953;DHT22;63613;28.200;112.870;2023-04-16T05:10:33;27.00;52.40
41953;DHT22;63613;28.200;112.870;2023-04-16T05:13:00;27.00;52.30
41953;DHT22;63613;28.200;112.870;2023-04-16T05:15:27;27.00;52.40
41953;DHT22;63613;28.200;112.870;2023-04-16T05:17:56;27.10;52.20
41953;DHT22;63613;28.200;112.870;2023-04-16T05:20:23;27.10;52.20
41953;DHT22;63613;28.200;112.870;2023-04-16T05:22:50;27.10;52.20
41953;DHT22;63613;28.200;112.870;2023-04-16T05:25:20;27.20;52.00
41953;DHT22;63613;28.200;112.870;2023-04-16T05:27:47;27.20;52.00
41953;DHT22;63613;28.200;112.870;2023-04-16T05:30:14;27.20;52.00
41953;DHT22;63613;28.200;112.870;2023-04-16T05:32:43;27.20;52.10
41953;DHT22;63613;28.200;112.870;2023-04-16T05:35:10;27.30;52.10
41953;DHT22;63613;28.200;112.870;2023-04-16T05:37:39;27.30;52.10
41953;DHT22;63613;28.200;112.870;2023-04-16T05:40:08;27.30;52.20
41953;DHT22;63613;28.200;112.870;2023-04-16T05:42:37;27.40;52.20
41953;DHT22;63613;28.200;112.870;2023-04-16T05:45:06;27.30;52.10
41953;DHT22;63613;28.200;112.870;2023-04-16T05:47:35;27.50;52.00
41953;DHT22;63613;28.200;112.870;2023-04-16T05:50:03;27.50;52.00
41953;DHT22;63613;28.200;112.870;2023-04-16T05:52:32;27.50;52.10
41953;DHT22;63613;28.200;112.870;2023-04-16T05:54:59;27.50;52.10
41953;DHT22;63613;28.200;112.870;2023-04-16T05:57:29;27.50;52.10
41953;DHT22;63613;28.200;112.870;2023-04-16T05:59:56;27.50;52.30
41953;DHT22;63613;28.200;112.870;2023-04-16T06:02:23;27.60;52.20
41953;DHT22;63613;28.200;112.870;2023-04-16T06:04:53;27.70;52.10
41953;DHT22;63613;28.200;112.870;2023-04-16T06:07:20;27.70;52.30
41953;DHT22;63613;28.200;112.870;2023-04-16T06:10:08;27.70;52.40
41953;DHT22;63613;28.200;112.870;2023-04-16T06:12:36;27.70;52.50
41953;DHT22;63613;28.200;112.870;2023-04-16T06:15:05;27.70;52.40
41953;DHT22;63613;28.200;112.870;2023-04-16T06:17:32;27.70;52.00
41953;DHT22;63613;28.200;112.870;2023-04-16T06:20:21;27.70;52.00
41953;DHT22;63613;28.200;112.870;2023-04-16T06:22:48;27.70;51.70
41953;DHT22;63613;28.200;112.870;2023-04-16T06:25:16;27.70;51.80
41953;DHT22;63613;28.200;112.870;2023-04-16T06:27:43;27.70;51.80
41953;DHT22;63613;28.200;112.870;2023-04-16T06:30:13;27.70;51.70
41953;DHT22;63613;28.200;112.870;2023-04-16T06:33:02;27.70;51.80
41953;DHT22;63613;28.200;112.870;2023-04-16T06:35:33;27.80;51.90
41953;DHT22;63613;28.200;112.870;2023-04-16T06:38:00;27.80;52.00
41953;DHT22;63613;28.200;112.870;2023-04-16T06:40:28;27.80;51.80
41953;DHT22;63613;28.200;112.870;2023-04-16T06:42:57;27.80;51.80
41953;DHT22;63613;28.200;112.870;2023-04-16T06:45:25;27.80;51.70
41953;DHT22;63613;28.200;112.870;2023-04-16T06:47:52;27.80;51.50
41953;DHT22;63613;28.200;112.870;2023-04-16T06:50:21;27.80;51.60
41953;DHT22;63613;28.200;112.870;2023-04-16T06:52:52;27.80;51.70
41953;DHT22;63613;28.200;112.870;2023-04-16T06:55:22;27.80;51.70
41953;DHT22;63613;28.200;112.870;2023-04-16T06:57:49;27.90;51.90
41953;DHT22;63613;28.200;112.870;2023-04-16T07:00:16;27.90;52.00
41953;DHT22;63613;28.200;112.870;2023-04-16T07:02:43;27.80;52.00
41953;DHT22;63613;28.200;112.870;2023-04-16T07:05:10;27.90;52.10
41953;DHT22;63613;28.200;112.870;2023-04-16T07:07:58;27.90;52.00
41953;DHT22;63613;28.200;112.870;2023-04-16T07:10:26;27.90;51.90
41953;DHT22;63613;28.200;112.870;2023-04-16T07:12:52;27.90;51.90
41953;DHT22;63613;28.200;112.870;2023-04-16T07:15:19;28.00;52.00
41953;DHT22;63613;28.200;112.870;2023-04-16T07:17:46;28.00;51.70
41953;DHT22;63613;28.200;112.870;2023-04-16T07:20:13;27.90;51.60
41953;DHT22;63613;28.200;112.870;2023-04-16T07:22:40;27.90;51.70
41953;DHT22;63613;28.200;112.870;2023-04-16T07:25:07;27.90;51.40
41953;DHT22;63613;28.200;112.870;2023-04-16T07:27:37;28.00;51.30
41953;DHT22;63613;28.200;112.870;2023-04-16T07:30:05;28.00;51.30
41953;DHT22;63613;28.200;112.870;2023-04-16T07:32:35;28.00;51.40
41953;DHT22;63613;28.200;112.870;2023-04-16T07:35:04;28.00;51.20
41953;DHT22;63613;28.200;112.870;2023-04-16T07:37:32;28.00;51.40
41953;DHT22;63613;28.200;112.870;2023-04-16T07:40:03;28.00;51.20
41953;DHT22;63613;28.200;112.870;2023-04-16T07:42:29;28.00;51.30
41953;DHT22;63613;28.200;112.870;2023-04-16T07:45:17;28.00;51.30
41953;DHT22;63613;28.200;112.870;2023-04-16T07:47:44;28.00;51.40
41953;DHT22;63613;28.200;112.870;2023-04-16T07:50:12;28.00;51.40
41953;DHT22;63613;28.200;112.870;2023-04-16T07:52:39;27.90;51.20
41953;DHT22;63613;28.200;112.870;2023-04-16T07:55:08;27.90;51.10
41953;DHT22;63613;28.200;112.870;2023-04-16T07:57:37;27.90;51.10
41953;DHT22;63613;28.200;112.870;2023-04-16T08:00:05;27.90;51.00
41953;DHT22;63613;28.200;112.870;2023-04-16T08:02:32;27.90;51.10
41953;DHT22;63613;28.200;112.870;2023-04-16T08:05:02;27.80;51.10
41953;DHT22;63613;28.200;112.870;2023-04-16T08:07:29;27.80;50.90
41953;DHT22;63613;28.200;112.870;2023-04-16T08:10:16;27.80;50.90
41953;DHT22;63613;28.200;112.870;2023-04-16T08:12:43;27.80;50.70
41953;DHT22;63613;28.200;112.870;2023-04-16T08:15:10;27.80;50.50
41953;DHT22;63613;28.200;112.870;2023-04-16T08:17:41;27.70;50.40
41953;DHT22;63613;28.200;112.870;2023-04-16T08:20:08;27.80;50.30
41953;DHT22;63613;28.200;112.870;2023-04-16T08:22:36;27.80;50.00
41953;DHT22;63613;28.200;112.870;2023-04-16T08:25:05;27.70;50.10
41953;DHT22;63613;28.200;112.870;2023-04-16T08:27:37;27.70;49.80
41953;DHT22;63613;28.200;112.870;2023-04-16T08:30:04;27.70;49.50
41953;DHT22;63613;28.200;112.870;2023-04-16T08:32:31;27.70;49.50
41953;DHT22;63613;28.200;112.870;2023-04-16T08:34:59;27.70;49.10
41953;DHT22;63613;28.200;112.870;2023-04-16T08:37:46;27.70;49.30
41953;DHT22;63613;28.200;112.870;2023-04-16T08:40:16;27.70;49.10
41953;DHT22;63613;28.200;112.870;2023-04-16T08:42:53;27.70;49.30
41953;DHT22;63613;28.200;112.870;2023-04-16T08:45:21;27.70;49.40
41953;DHT22;63613;28.200;112.870;2023-04-16T08:47:49;27.60;49.40
41953;DHT22;63613;28.200;112.870;2023-04-16T08:50:37;27.60;49.60
41953;DHT22;63613;28.200;112.870;2023-04-16T08:53:05;27.60;49.50
41953;DHT22;63613;28.200;112.870;2023-04-16T08:55:40;27.50;49.60
41953;DHT22;63613;28.200;112.870;2023-04-16T08:58:20;27.50;49.60
41953;DHT22;63613;28.200;112.870;2023-04-16T09:00:49;27.50;49.50
41953;DHT22;63613;28.200;112.870;2023-04-16T09:03:16;27.50;49.60
41953;DHT22;63613;28.200;112.870;2023-04-16T09:05:45;27.50;49.70
41953;DHT22;63613;28.200;112.870;2023-04-16T09:08:17;27.50;49.80
41953;DHT22;63613;28.200;112.870;2023-04-16T09:10:45;27.40;49.90
41953;DHT22;63613;28.200;112.870;2023-04-16T09:13:14;27.40;50.10
41953;DHT22;63613;28.200;112.870;2023-04-16T09:15:43;27.40;50.10
41953;DHT22;63613;28.200;112.870;2023-04-16T09:18:10;27.40;50.30
41953;DHT22;63613;28.200;112.870;2023-04-16T09:20:57;27.40;50.60
41953;DHT22;63613;28.200;112.870;2023-04-16T09:23:25;27.30;50.80
41953;DHT22;63613;28.200;112.870;2023-04-16T09:25:52;27.30;50.90
41953;DHT22;63613;28.200;112.870;2023-04-16T09:28:43;27.30;51.10
41953;DHT22;63613;28.200;112.870;2023-04-16T09:31:16;27.30;51.30
41953;DHT22;63613;28.200;112.870;2023-04-16T09:33:59;27.30;51.40
41953;DHT22;63613;28.200;112.870;2023-04-16T09:36:26;27.30;51.60
41953;DHT22;63613;28.200;112.870;2023-04-16T09:38:54;27.20;51.60
41953;DHT22;63613;28.200;112.870;2023-04-16T09:41:31;27.20;51.50
41953;DHT22;63613;28.200;112.870;2023-04-16T09:44:00;27.20;51.50
41953;DHT22;63613;28.200;112.870;2023-04-16T09:46:36;27.20;51.60
41953;DHT22;63613;28.200;112.870;2023-04-16T09:49:16;27.20;51.70
41953;DHT22;63613;28.200;112.870;2023-04-16T09:51:49;27.20;51.70
41953;DHT22;63613;28.200;112.870;2023-04-16T09:54:19;27.20;51.80
41953;DHT22;63613;28.200;112.870;2023-04-16T09:56:46;27.10;51.80
41953;DHT22;63613;28.200;112.870;2023-04-16T09:59:21;27.10;51.90
41953;DHT22;63613;28.200;112.870;2023-04-16T10:01:59;27.10;52.10
41953;DHT22;63613;28.200;112.870;2023-04-16T10:04:26;27.00;52.20
41953;DHT22;63613;28.200;112.870;2023-04-16T10:07:06;27.00;52.50
41953;DHT22;63613;28.200;112.870;2023-04-16T10:09:39;27.00;52.70
41953;DHT22;63613;28.200;112.870;2023-04-16T10:12:26;27.00;52.80
41953;DHT22;63613;28.200;112.870;2023-04-16T10:14:54;27.00;53.00
41953;DHT22;63613;28.200;112.870;2023-04-16T10:17:41;27.00;53.10
41953;DHT22;63613;28.200;112.870;2023-04-16T10:20:08;27.00;53.10
41953;DHT22;63613;28.200;112.870;2023-04-16T10:22:36;26.90;53.10
41953;DHT22;63613;28.200;112.870;2023-04-16T10:25:03;26.90;53.00
41953;DHT22;63613;28.200;112.870;2023-04-16T10:27:30;26.90;53.10
41953;DHT22;63613;28.200;112.870;2023-04-16T10:29:58;26.90;53.10
41953;DHT22;63613;28.200;112.870;2023-04-16T10:32:26;26.80;53.10
41953;DHT22;63613;28.200;112.870;2023-04-16T10:34:54;26.80;53.20
41953;DHT22;63613;28.200;112.870;2023-04-16T10:37:29;26.80;53.30
41953;DHT22;63613;28.200;112.870;2023-04-16T10:39:58;26.80;53.40
41953;DHT22;63613;28.200;112.870;2023-04-16T10:42:25;26.70;53.50
41953;DHT22;63613;28.200;112.870;2023-04-16T10:44:52;26.80;53.80
41953;DHT22;63613;28.200;112.870;2023-04-16T10:47:19;26.70;53.80
41953;DHT22;63613;28.200;112.870;2023-04-16T10:49:51;26.70;53.90
41953;DHT22;63613;28.200;112.870;2023-04-16T10:52:18;26.70;53.90
41953;DHT22;63613;28.200;112.870;2023-04-16T10:54:46;26.70;54.00
41953;DHT22;63613;28.200;112.870;2023-04-16T10:57:18;26.70;54.00
41953;DHT22;63613;28.200;112.870;2023-04-16T10:59:47;26.70;54.10
41953;DHT22;63613;28.200;112.870;2023-04-16T11:02:16;26.70;54.20
41953;DHT22;63613;28.200;112.870;2023-04-16T11:04:44;26.60;54.30
41953;DHT22;63613;28.200;112.870;2023-04-16T11:12:44;26.60;54.10
41953;DHT22;63613;28.200;112.870;2023-04-16T11:15:15;26.60;54.20
41953;DHT22;63613;28.200;112.870;2023-04-16T11:17:48;26.60;54.20
41953;DHT22;63613;28.200;112.870;2023-04-16T11:20:21;26.60;54.20
41953;DHT22;63613;28.200;112.870;2023-04-16T11:22:52;26.50;54.00
41953;DHT22;63613;28.200;112.870;2023-04-16T11:25:27;26.50;53.90
41953;DHT22;63613;28.200;112.870;2023-04-16T11:28:17;26.50;53.90
41953;DHT22;63613;28.200;112.870;2023-04-16T11:30:43;26.50;53.90
41953;DHT22;63613;28.200;112.870;2023-04-16T11:33:31;26.50;53.80
41953;DHT22;63613;28.200;112.870;2023-04-16T11:36:00;26.50;53.60
41953;DHT22;63613;28.200;112.870;2023-04-16T11:38:37;26.50;53.50
41953;DHT22;63613;28.200;112.870;2023-04-16T11:41:06;26.50;53.50
41953;DHT22;63613;28.200;112.870;2023-04-16T11:43:34;26.50;53.40
41953;DHT22;63613;28.200;112.870;2023-04-16T11:46:01;26.40;53.40
41953;DHT22;63613;28.200;112.870;2023-04-16T11:48:51;26.40;53.10
41953;DHT22;63613;28.200;112.870;2023-04-16T11:51:19;26.40;53.20
41953;DHT22;63613;28.200;112.870;2023-04-16T11:53:49;26.40;53.20
41953;DHT22;63613;28.200;112.870;2023-04-16T11:56:34;26.40;53.20
41953;DHT22;63613;28.200;112.870;2023-04-16T11:59:10;26.40;53.30
41953;DHT22;63613;28.200;112.870;2023-04-16T12:01:38;26.40;53.20
41953;DHT22;63613;28.200;112.870;2023-04-16T12:04:05;26.40;53.30
41953;DHT22;63613;28.200;112.870;2023-04-16T12:06:32;26.40;53.20
41953;DHT22;63613;28.200;112.870;2023-04-16T12:09:21;26.40;53.10
41953;DHT22;63613;28.200;112.870;2023-04-16T12:11:49;26.30;53.10
41953;DHT22;63613;28.200;112.870;2023-04-16T12:14:16;26.30;53.10
41953;DHT22;63613;28.200;112.870;2023-04-16T12:16:43;26.30;53.10
41953;DHT22;63613;28.200;112.870;2023-04-16T12:19:12;26.30;53.10
41953;DHT22;63613;28.200;112.870;2023-04-16T12:21:47;26.30;52.90
41953;DHT22;63613;28.200;112.870;2023-04-16T12:24:17;26.30;53.00
41953;DHT22;63613;28.200;112.870;2023-04-16T12:26:53;26.30;53.10
41953;DHT22;63613;28.200;112.870;2023-04-16T12:29:28;26.30;53.20
41953;DHT22;63613;28.200;112.870;2023-04-16T12:31:55;26.30;53.20
41953;DHT22;63613;28.200;112.870;2023-04-16T12:34:22;26.30;53.10
41953;DHT22;63613;28.200;112.870;2023-04-16T12:37:05;26.30;53.10
41953;DHT22;63613;28.200;112.870;2023-04-16T12:39:32;26.30;53.10
41953;DHT22;63613;28.200;112.870;2023-04-16T12:41:59;26.30;53.10
41953;DHT22;63613;28.200;112.870;2023-04-16T12:44:27;26.30;53.10
41953;DHT22;63613;28.200;112.870;2023-04-16T12:46:57;26.30;53.00
41953;DHT22;63613;28.200;112.870;2023-04-16T12:49:24;26.20;52.90
41953;DHT22;63613;28.200;112.870;2023-04-16T12:52:11;26.30;52.90
41953;DHT22;63613;28.200;112.870;2023-04-16T12:54:42;26.30;52.90
41953;DHT22;63613;28.200;112.870;2023-04-16T12:57:09;26.20;53.00
41953;DHT22;63613;28.200;112.870;2023-04-16T12:59:40;26.20;53.00
41953;DHT22;63613;28.200;112.870;2023-04-16T13:02:07;26.20;52.90
41953;DHT22;63613;28.200;112.870;2023-04-16T13:04:34;26.20;52.90
41953;DHT22;63613;28.200;112.870;2023-04-16T13:07:01;26.20;52.80
41953;DHT22;63613;28.200;112.870;2023-04-16T13:09:28;26.20;52.90
41953;DHT22;63613;28.200;112.870;2023-04-16T13:11:54;26.20;53.10
41953;DHT22;63613;28.200;112.870;2023-04-16T13:14:21;26.20;53.20
41953;DHT22;63613;28.200;112.870;2023-04-16T13:16:48;26.20;53.10
41953;DHT22;63613;28.200;112.870;2023-04-16T13:19:15;26.20;53.20
41953;DHT22;63613;28.200;112.870;2023-04-16T13:21:44;26.20;53.30
41953;DHT22;63613;28.200;112.870;2023-04-16T13:24:31;26.20;53.30
41953;DHT22;63613;28.200;112.870;2023-04-16T13:26:58;26.20;53.40
41953;DHT22;63613;28.200;112.870;2023-04-16T13:29:24;26.20;53.40
41953;DHT22;63613;28.200;112.870;2023-04-16T13:31:52;26.20;53.50
41953;DHT22;63613;28.200;112.870;2023-04-16T13:34:19;26.20;53.50
41953;DHT22;63613;28.200;112.870;2023-04-16T13:36:49;26.20;53.50
41953;DHT22;63613;28.200;112.870;2023-04-16T13:39:16;26.20;53.60
41953;DHT22;63613;28.200;112.870;2023-04-16T13:41:43;26.20;53.60
41953;DHT22;63613;28.200;112.870;2023-04-16T13:44:10;26.20;53.70
41953;DHT22;63613;28.200;112.870;2023-04-16T13:46:37;26.20;53.70
41953;DHT22;63613;28.200;112.870;2023-04-16T13:49:04;26.20;53.60
41953;DHT22;63613;28.200;112.870;2023-04-16T13:51:34;26.20;53.50
41953;DHT22;63613;28.200;112.870;2023-04-16T13:54:03;26.20;53.40
41953;DHT22;63613;28.200;112.870;2023-04-16T13:56:30;26.10;53.40
41953;DHT22;63613;28.200;112.870;2023-04-16T13:58:56;26.20;53.40
41953;DHT22;63613;28.200;112.870;2023-04-16T14:01:23;26.10;53.50
41953;DHT22;63613;28.200;112.870;2023-04-16T14:03:50;26.10;53.50
41953;DHT22;63613;28.200;112.870;2023-04-16T14:06:17;26.10;53.50
41953;DHT22;63613;28.200;112.870;2023-04-16T14:08:44;26.10;53.50
41953;DHT22;63613;28.200;112.870;2023-04-16T14:11:11;26.10;53.50
41953;DHT22;63613;28.200;112.870;2023-04-16T14:13:41;26.20;53.60
41953;DHT22;63613;28.200;112.870;2023-04-16T14:16:08;26.10;53.60
41953;DHT22;63613;28.200;112.870;2023-04-16T14:18:36;26.10;53.60
41953;DHT22;63613;28.200;112.870;2023-04-16T14:21:07;26.10;53.50
41953;DHT22;63613;28.200;112.870;2023-04-16T14:23:34;26.10;53.50
41953;DHT22;63613;28.200;112.870;2023-04-16T14:26:02;26.10;53.50
41953;DHT22;63613;28.200;112.870;2023-04-16T14:28:29;26.10;53.50
41953;DHT22;63613;28.200;112.870;2023-04-16T14:30:57;26.10;53.40
41953;DHT22;63613;28.200;112.870;2023-04-16T14:33:27;26.10;53.40
41953;DHT22;63613;28.200;112.870;2023-04-16T14:35:56;26.10;53.20
41953;DHT22;63613;28.200;112.870;2023-04-16T14:38:25;26.00;53.10
41953;DHT22;63613;28.200;112.870;2023-04-16T14:40:53;26.10;53.10
41953;DHT22;63613;28.200;112.870;2023-04-16T14:43:20;26.00;52.90
41953;DHT22;63613;28.200;112.870;2023-04-16T14:45:47;26.10;52.90
41953;DHT22;63613;28.200;112.870;2023-04-16T14:48:15;26.00;52.90
41953;DHT22;63613;28.200;112.870;2023-04-16T14:50:43;26.00;52.90
41953;DHT22;63613;28.200;112.870;2023-04-16T14:53:11;26.10;53.00
41953;DHT22;63613;28.200;112.870;2023-04-16T14:55:39;26.00;53.00
41953;DHT22;63613;28.200;112.870;2023-04-16T14:58:08;26.00;53.00
41953;DHT22;63613;28.200;112.870;2023-04-16T15:00:35;26.00;53.00
41953;DHT22;63613;28.200;112.870;2023-04-16T15:03:04;26.00;53.00
41953;DHT22;63613;28.200;112.870;2023-04-16T15:05:31;26.00;53.00
41953;DHT22;63613;28.200;112.870;2023-04-16T15:08:00;26.00;52.80
41953;DHT22;63613;28.200;112.870;2023-04-16T15:10:47;26.00;52.80
41953;DHT22;63613;28.200;112.870;2023-04-16T15:13:16;26.00;52.70
41953;DHT22;63613;28.200;112.870;2023-04-16T15:15:46;26.00;52.80
41953;DHT22;63613;28.200;112.870;2023-04-16T15:18:13;26.00;52.90
41953;DHT22;63613;28.200;112.870;2023-04-16T15:20:40;26.00;52.90
41953;DHT22;63613;28.200;112.870;2023-04-16T15:23:10;26.00;52.90
41953;DHT22;63613;28.200;112.870;2023-04-16T15:25:58;26.00;52.80